Aeroporto :
LOGIN :

Iscrizione | Disclaimer

   EN    FR    IT 

 










Sommario :    VFR   VFR Marginale   IFR   IFR Intensivo   IFR Molto Intensivo
Visibilità : 
Base nubi : 
>= 8 km
>= 3000ft
5 / 8 km
1000 / 3000 ft
1500m / 5 km
500 / 1000 ft
800 / 1500m
200 / 500 ft
< 800m
< 200 ft
Simboli :   Temporali  Nebbia  Neve Forte  Precipitazioni Forti  Vento > 20 kt
SIGMETs :   Varie  Temporali  Ghiacco  Turbolenza  Onda orograficha  Ceneri Vulcaniche






- Altitudine del aeroporto : 352 ft
- Codice IATA : ARW


LRAR - Arad International

ULTIMO METAR :
  • 241130Z 12004KT 090V160 CAVOK 04/M02 Q1028

METARs OBSOLETI :
  • 241100Z 13004KT 080V170 CAVOK 03/M01 Q1028
  • 241030Z VRB04KT CAVOK 02/M01 Q1029
  • 241000Z 16006KT 130V190 CAVOK 01/M01 Q1030
  • 240930Z 17008KT 150V210 CAVOK M00/M01 Q1030
  • 240900Z 17006KT 140V200 CAVOK M01/M01 Q1030

TAF TAF LRAR
Valido dal 24 a 12 ore il 24 a 21 ore UTC


241100Z 2412/2421 VRB04KT CAVOK
TEMPO 2419/2421 5000 BR



MetMap, La meteo Aeronautica in un colpo d'occhio ! - Copyright ORBIFLY Dicembre 2007 - Disclaimer

ORBIFLY MET'MAP TEAM :

Programmazione e sviluppo : Alexandra Zaïnal
Concezione : Baudouin d'Aumeries
Aiuto per la programmazione : Marc-Olivier Méhu
Supporto tecnico e logistico : Manuel Goepfert
Aiuto per la traduzione : Arnaldo La Scala

Contatto : metmap@orbifly.com




FONTI E CREDITI :

   NOAA